Alba, TX

12:08 AM CDT on April 22, 2015 (GMT -0500)
Sulphur Springs Municipal | | Change Station
CLOSE
Current Station
Airport
Location: Sulphur Springs,
Elevation: 489 ft
Nearby Weather Stations
Active Advisory: Flood Warning

Elev 489 ft 33.16 °N, 95.62 °W | Updated 13 minutes ago

Partly Cloudy
Partly Cloudy
56 °F
Feels Like 56 °F
N
4
Wind Variable Wind from East

Today
High -- | Low -- °F
--% Chance of Precip.
Yesterday
High -- | Low -- °F
Precip. -- in
6:45 AM 7:57 PM
Waxing Crescent, 15% visible
Pressure 29.97 in
Visibility 0.5 miles
Clouds
Dew Point 56 °F
Humidity 100%
Rainfall 0.20 in
Snow Depth Not available.
UV Not available.
Pollen 8.00 out of 12
Air Quality Not available.
Flu Activity Local Activity
METAR KSLR 220455Z AUTO 09003KT 1/2SM FG 13/13 A2997 RMK AO2 T01310131

More Conditions Fewer Conditions

Pressure 29.97 in
Visibility 0.5 miles
Clouds
Dew Point 56 °F
Humidity 100%
Rainfall 0.20 in
Snow Depth Not available.
UV Not available.
Pollen 8.00 out of 12
Air Quality Not available.
Flu Activity Local Activity
METAR KSLR 220455Z AUTO 09003KT 1/2SM FG 13/13 A2997 RMK AO2 T01310131

More Conditions Fewer Conditions

10-Day Weather Forecast

Almanac

Astronomy

Apr. 22, 2015 Rise Set
Actual Time
Civil Twilight
Nautical Twilight
Astronomical Twilight
Moon
Length of Visible Light
Length of Day
Tomorrow will be .
, % of the Moon is Illuminated

Today's Extremes

State Highs State Lows

Community

WunderPhotos

Upload Photos

1,815,668 photos uploaded!

WunderBlogs® & News

Nearby

Air Quality

  Air Quality AQ Index Pollutant
Not available.

Snow Depth

Station Depth Elevation

Earthquake Activity

City Distance Mag. Time & Date
Minimum magnitude displayed is 2.5.

Coastal Water Temperatures

Place Temperature

Stations

Nearby Weather Stations

Station Location Temp. Windchill Dew Point Humidity Wind Precip. Elev Updated Type
                   
Flood Warning
Statement as of 8:31 AM CDT on April 21, 2015

The Flood Warning continues for
the Sabine River near Mineola, Texas.
* Until Wednesday evening... or until the warning is cancelled.
* At 815 am Tuesday the stage was 14.2 feet.
* Minor flooding is occurring and minor flooding is forecast.
* Flood stage is 14 feet.
* Forecast... the river will continue to fall to below flood stage by
early Wednesday morning. Also the Sabine River crested will crest
at 14.3 feet during this Tuesday morning.
* Impact... at 14.0 feet... expect flooding of secondary roadways with
picnic and recreational areas flooded as well.


Lat... Lon 3278 9574 3263 9535 3257 9535 3259 9550 3273 9574